createdAt,value
2018-02-05T00:01:55.964Z,2.01
2018-02-05T00:04:23.839Z,2.06
2018-02-05T00:06:51.658Z,2.03
2018-02-05T00:09:19.448Z,1.95
2018-02-05T00:11:47.244Z,1.90
2018-02-05T00:14:15.092Z,1.95
2018-02-05T00:16:42.916Z,1.83
2018-02-05T00:19:10.736Z,1.86
2018-02-05T00:21:38.530Z,1.82
2018-02-05T00:24:06.413Z,1.88
2018-02-05T00:26:34.219Z,1.88
2018-02-05T00:29:02.080Z,1.91
2018-02-05T00:31:29.905Z,1.89
2018-02-05T00:33:57.784Z,1.77
2018-02-05T00:36:25.620Z,1.80
2018-02-05T00:38:53.507Z,1.77
2018-02-05T00:41:21.275Z,1.78
2018-02-05T00:43:49.129Z,1.81
2018-02-05T00:46:16.943Z,1.83
2018-02-05T00:48:44.739Z,1.74
2018-02-05T00:51:12.599Z,1.86
2018-02-05T00:53:40.378Z,1.84
2018-02-05T00:56:08.258Z,1.88
2018-02-05T00:58:36.052Z,1.92
2018-02-05T01:01:03.955Z,1.81
2018-02-05T01:03:31.723Z,1.85
2018-02-05T01:05:59.631Z,1.88
2018-02-05T01:08:27.461Z,1.87
2018-02-05T01:10:55.306Z,1.91
2018-02-05T01:13:23.085Z,1.90
2018-02-05T01:15:50.924Z,1.85
2018-02-05T01:18:18.774Z,1.86
2018-02-05T01:20:46.680Z,1.79
2018-02-05T01:23:14.466Z,1.76
2018-02-05T01:25:42.302Z,1.65
2018-02-05T01:28:10.137Z,1.66
2018-02-05T01:30:38.012Z,1.73
2018-02-05T01:33:05.806Z,1.62
2018-02-05T01:35:33.649Z,1.66
2018-02-05T01:38:01.444Z,1.63
2018-02-05T01:40:29.318Z,1.61
2018-02-05T01:42:57.104Z,1.67
2018-02-05T01:45:25.040Z,1.80
2018-02-05T01:47:52.873Z,1.82
2018-02-05T01:50:20.716Z,1.83
2018-02-05T01:52:48.542Z,1.78
2018-02-05T01:55:16.372Z,1.74
2018-02-05T01:57:44.161Z,1.75
2018-02-05T02:00:12.029Z,1.80
2018-02-05T02:02:39.816Z,1.79
2018-02-05T02:05:07.678Z,1.84
2018-02-05T02:07:35.543Z,1.83
2018-02-05T02:10:03.420Z,1.77
2018-02-05T02:12:31.232Z,1.74
2018-02-05T02:14:59.046Z,1.74
2018-02-05T02:17:26.874Z,1.76
2018-02-05T02:19:54.777Z,1.71
2018-02-05T02:22:22.615Z,1.72
2018-02-05T02:24:50.493Z,1.71
2018-02-05T02:27:18.318Z,1.70
2018-02-05T02:29:46.109Z,1.66
2018-02-05T02:32:13.944Z,1.66
2018-02-05T02:34:41.737Z,1.64
2018-02-05T02:37:09.596Z,1.64
2018-02-05T02:39:37.428Z,1.64
2018-02-05T02:42:05.419Z,1.69
2018-02-05T02:44:33.247Z,1.67
2018-02-05T02:47:01.220Z,1.67
2018-02-05T02:49:29.049Z,1.75
2018-02-05T02:51:56.882Z,1.74
2018-02-05T02:54:24.720Z,1.70
2018-02-05T02:56:52.587Z,1.64
2018-02-05T02:59:20.398Z,1.63
2018-02-05T03:01:48.232Z,1.62
2018-02-05T03:04:16.009Z,1.61
2018-02-05T03:06:43.872Z,1.53
2018-02-05T03:09:11.659Z,1.54
2018-02-05T03:11:39.507Z,1.57
2018-02-05T03:14:07.300Z,1.56
2018-02-05T03:16:35.137Z,1.55
2018-02-05T03:19:02.946Z,1.60
2018-02-05T03:21:30.836Z,1.56
2018-02-05T03:23:58.700Z,1.47
2018-02-05T03:26:26.518Z,1.49
2018-02-05T03:28:54.325Z,1.42
2018-02-05T03:31:22.168Z,1.52
2018-02-05T03:33:49.950Z,1.45
2018-02-05T03:36:17.789Z,1.43
2018-02-05T03:38:45.597Z,1.39
2018-02-05T03:41:13.538Z,1.29
2018-02-05T03:43:41.355Z,1.27
2018-02-05T03:46:09.232Z,1.24
2018-02-05T03:48:37.081Z,1.18
2018-02-05T03:51:04.943Z,1.15
2018-02-05T03:53:32.713Z,1.14
2018-02-05T03:56:00.544Z,1.14
2018-02-05T03:58:28.331Z,1.15
2018-02-05T04:00:56.223Z,1.11
2018-02-05T04:03:24.016Z,1.15
2018-02-05T04:05:51.850Z,1.22
2018-02-05T04:08:19.635Z,1.30
2018-02-05T04:10:47.407Z,1.31
2018-02-05T04:13:15.272Z,1.35
2018-02-05T04:15:43.058Z,1.33
2018-02-05T04:18:10.908Z,1.37
2018-02-05T04:20:38.719Z,1.38
2018-02-05T04:23:06.648Z,1.37
2018-02-05T04:25:34.424Z,1.44
2018-02-05T04:28:02.287Z,1.37
2018-02-05T04:30:30.071Z,1.43
2018-02-05T04:32:57.931Z,1.52
2018-02-05T04:35:25.785Z,1.49
2018-02-05T04:37:53.605Z,1.50
2018-02-05T04:40:21.506Z,1.45
2018-02-05T04:42:49.375Z,1.44
2018-02-05T04:45:17.167Z,1.44
2018-02-05T04:47:45.049Z,1.41
2018-02-05T04:50:12.853Z,1.45
2018-02-05T04:52:40.676Z,1.42
2018-02-05T04:55:08.475Z,1.43
2018-02-05T04:57:36.329Z,1.52
2018-02-05T05:00:04.251Z,1.42
2018-02-05T05:02:32.059Z,1.44
2018-02-05T05:04:59.834Z,1.48
2018-02-05T05:07:27.684Z,1.51
2018-02-05T05:09:55.560Z,1.49
2018-02-05T05:12:24.347Z,1.55
2018-02-05T05:14:52.157Z,1.47
2018-02-05T05:17:20.031Z,1.34
2018-02-05T05:19:47.807Z,1.28
2018-02-05T05:22:15.649Z,1.20
2018-02-05T05:24:43.441Z,1.13
2018-02-05T05:27:11.304Z,0.98
2018-02-05T05:29:39.147Z,0.95
2018-02-05T05:32:06.980Z,0.85
2018-02-05T05:34:34.788Z,1.03
2018-02-05T05:37:02.656Z,1.04
2018-02-05T05:39:30.511Z,0.98
2018-02-05T05:41:58.369Z,1.04
2018-02-05T05:44:26.192Z,0.98
2018-02-05T05:46:54.053Z,0.87
2018-02-05T05:49:21.852Z,0.76
2018-02-05T05:51:49.723Z,0.68
2018-02-05T05:54:17.515Z,0.52
2018-02-05T05:56:45.312Z,0.49
2018-02-05T05:59:13.172Z,0.61
2018-02-05T06:01:40.983Z,0.45
2018-02-05T06:04:08.825Z,0.39
2018-02-05T06:06:36.607Z,0.40
2018-02-05T06:09:04.576Z,0.42
2018-02-05T06:11:32.418Z,0.39
2018-02-05T06:14:00.236Z,0.48
2018-02-05T06:16:28.052Z,0.49
2018-02-05T06:18:55.904Z,0.48
2018-02-05T06:21:23.748Z,0.33
2018-02-05T06:23:51.599Z,0.31
2018-02-05T06:26:19.416Z,0.45
2018-02-05T06:28:47.275Z,0.38
2018-02-05T06:31:15.064Z,0.22
2018-02-05T06:33:42.916Z,0.02
2018-02-05T06:36:10.741Z,-0.12
2018-02-05T06:38:38.616Z,-0.21
2018-02-05T06:41:06.513Z,-0.22
2018-02-05T06:43:34.401Z,-0.22
2018-02-05T06:46:02.240Z,-0.25
2018-02-05T06:48:30.072Z,-0.32
2018-02-05T06:51:09.557Z,-0.40
2018-02-05T06:53:49.376Z,-0.48
2018-02-05T06:56:24.118Z,-0.54
2018-02-05T06:58:52.028Z,-0.55
2018-02-05T07:01:19.877Z,-0.59
2018-02-05T07:03:47.761Z,-0.62
2018-02-05T07:06:15.579Z,-0.66
2018-02-05T07:08:43.549Z,-0.70
2018-02-05T07:11:11.426Z,-0.70
2018-02-05T07:13:39.264Z,-0.64
2018-02-05T07:16:07.336Z,-0.58
2018-02-05T07:18:35.173Z,-0.48
2018-02-05T07:21:02.996Z,-0.36
2018-02-05T07:23:30.864Z,-0.27
2018-02-05T07:25:58.784Z,-0.21
2018-02-05T07:28:26.663Z,-0.18
2018-02-05T07:30:54.493Z,-0.17
2018-02-05T07:33:22.339Z,-0.16
2018-02-05T07:35:50.228Z,-0.21
2018-02-05T07:38:18.142Z,-0.27
2018-02-05T07:40:46.016Z,-0.35
2018-02-05T07:43:13.943Z,-0.39
2018-02-05T07:45:41.774Z,-0.39
2018-02-05T07:48:09.656Z,-0.38
2018-02-05T07:50:37.478Z,-0.33
2018-02-05T07:53:05.336Z,-0.24
2018-02-05T07:55:33.196Z,-0.10
2018-02-05T07:58:01.061Z,0.06
2018-02-05T08:00:28.869Z,0.21
2018-02-05T08:02:56.692Z,0.40
2018-02-05T08:05:24.557Z,0.59
2018-02-05T08:07:52.376Z,0.75
2018-02-05T08:10:20.254Z,0.86
2018-02-05T08:12:48.049Z,0.96
2018-02-05T08:15:15.970Z,1.02
2018-02-05T08:17:43.775Z,1.07
2018-02-05T08:20:11.601Z,1.12
2018-02-05T08:22:39.411Z,1.17
2018-02-05T08:25:07.246Z,1.13
2018-02-05T08:27:35.071Z,1.19
2018-02-05T08:30:02.939Z,1.11
2018-02-05T08:32:30.717Z,1.21
2018-02-05T08:34:58.556Z,1.28
2018-02-05T08:40:02.550Z,1.26
2018-02-05T08:42:30.364Z,1.24
2018-02-05T08:44:58.205Z,1.26
2018-02-05T08:47:26.266Z,1.33
2018-02-05T08:49:54.117Z,1.23
2018-02-05T08:52:21.936Z,1.23
2018-02-05T08:54:49.777Z,1.29
2018-02-05T08:57:17.597Z,1.28
2018-02-05T08:59:45.444Z,1.37
2018-02-05T09:02:13.252Z,1.54
2018-02-05T09:04:41.098Z,1.76
2018-02-05T09:07:08.894Z,1.74
2018-02-05T09:09:36.724Z,1.61
2018-02-05T09:12:04.547Z,1.66
2018-02-05T09:14:32.395Z,1.54
2018-02-05T09:17:00.209Z,1.47
2018-02-05T09:19:28.131Z,1.37
2018-02-05T09:21:55.918Z,1.30
2018-02-05T09:24:23.762Z,1.30
2018-02-05T09:26:51.587Z,1.24
2018-02-05T09:29:19.411Z,1.14
2018-02-05T09:31:47.218Z,1.27
2018-02-05T09:34:15.042Z,1.34
2018-02-05T09:36:42.875Z,1.32
2018-02-05T09:39:10.754Z,1.35
2018-02-05T09:41:38.595Z,1.36
2018-02-05T09:44:06.508Z,1.44
2018-02-05T09:46:34.295Z,1.50
2018-02-05T09:49:02.171Z,1.64
2018-02-05T09:51:29.965Z,1.62
2018-02-05T09:53:57.766Z,1.49
2018-02-05T09:56:25.564Z,1.37
2018-02-05T09:58:53.448Z,1.26
2018-02-05T10:01:21.303Z,1.12
2018-02-05T10:03:49.096Z,1.25
2018-02-05T10:06:16.976Z,1.45
2018-02-05T10:08:44.769Z,1.44
2018-02-05T10:11:12.657Z,1.28
2018-02-05T10:13:40.463Z,1.28
2018-02-05T10:16:08.364Z,1.36
2018-02-05T10:18:36.210Z,1.31
2018-02-05T10:21:04.050Z,1.22
2018-02-05T10:23:31.865Z,1.23
2018-02-05T10:25:59.746Z,1.33
2018-02-05T10:28:27.568Z,1.42
2018-02-05T10:30:55.432Z,1.44
2018-02-05T10:33:23.257Z,1.57
2018-02-05T10:35:51.158Z,1.75
2018-02-05T10:38:18.965Z,1.73
2018-02-05T10:40:46.877Z,1.77
2018-02-05T10:43:14.757Z,1.92
2018-02-05T10:45:42.617Z,2.04
2018-02-05T10:48:10.424Z,2.03
2018-02-05T10:50:38.211Z,1.93
2018-02-05T10:53:06.010Z,2.00
2018-02-05T10:55:33.895Z,2.08
2018-02-05T10:58:01.704Z,2.01
2018-02-05T11:00:29.622Z,1.90
2018-02-05T11:02:57.419Z,1.81
2018-02-05T11:05:25.271Z,1.67
2018-02-05T11:07:53.066Z,1.68
2018-02-05T11:10:20.896Z,1.50
2018-02-05T11:12:48.666Z,1.44
2018-02-05T11:15:16.537Z,1.50
2018-02-05T11:17:44.327Z,1.64
2018-02-05T11:20:12.155Z,1.76
2018-02-05T11:22:39.990Z,1.73
2018-02-05T11:25:07.898Z,1.59
2018-02-05T11:27:35.705Z,1.56
2018-02-05T11:30:03.647Z,1.44
2018-02-05T11:32:31.500Z,1.51
2018-02-05T11:34:59.311Z,1.54
2018-02-05T11:37:27.198Z,1.64
2018-02-05T11:39:55.028Z,1.77
2018-02-05T11:42:22.909Z,1.79
2018-02-05T11:44:50.761Z,1.81
2018-02-05T11:47:18.632Z,1.89
2018-02-05T11:49:46.481Z,1.99
2018-02-05T11:52:14.358Z,2.03
2018-02-05T11:54:42.151Z,2.08
2018-02-05T11:57:10.026Z,2.11
2018-02-05T11:59:37.816Z,1.84
2018-02-05T12:02:05.699Z,1.86
2018-02-05T12:04:33.518Z,1.88
2018-02-05T12:07:01.365Z,1.94
2018-02-05T12:09:29.200Z,2.00
2018-02-05T12:11:57.072Z,2.13
2018-02-05T12:14:24.893Z,2.20
2018-02-05T12:16:52.786Z,2.32
2018-02-05T12:19:20.552Z,2.37
2018-02-05T12:21:48.436Z,2.32
2018-02-05T12:24:16.234Z,2.27
2018-02-05T12:26:44.072Z,2.57
2018-02-05T12:29:11.864Z,2.62
2018-02-05T12:31:39.720Z,2.61
2018-02-05T12:34:07.549Z,2.60
2018-02-05T12:36:35.424Z,2.43
2018-02-05T12:39:04.273Z,2.59
2018-02-05T12:41:32.183Z,2.70
2018-02-05T12:44:00.006Z,2.74
2018-02-05T12:46:27.891Z,2.61
2018-02-05T12:48:55.761Z,2.45
2018-02-05T12:51:23.647Z,2.40
2018-02-05T12:53:51.503Z,2.28
2018-02-05T12:56:19.405Z,2.24
2018-02-05T12:58:47.247Z,2.25
2018-02-05T13:01:15.138Z,2.21
2018-02-05T13:03:46.485Z,2.08
2018-02-05T13:06:20.129Z,2.13
2018-02-05T13:08:47.989Z,2.12
2018-02-05T13:11:15.857Z,2.02
2018-02-05T13:13:43.687Z,1.99
2018-02-05T13:16:11.529Z,2.06
2018-02-05T13:18:39.351Z,2.09
2018-02-05T13:21:07.276Z,2.14
2018-02-05T13:23:35.039Z,2.08
2018-02-05T13:26:02.910Z,1.97
2018-02-05T13:28:30.765Z,1.89
2018-02-05T13:30:58.572Z,1.87
2018-02-05T13:33:26.467Z,1.87
2018-02-05T13:35:54.239Z,1.81
2018-02-05T13:38:22.101Z,1.74
2018-02-05T13:40:50.017Z,1.70
2018-02-05T13:43:17.816Z,1.71
2018-02-05T13:45:45.677Z,1.68
2018-02-05T13:48:13.552Z,1.68
2018-02-05T13:50:41.409Z,1.72
2018-02-05T13:53:09.263Z,1.83
2018-02-05T13:55:37.093Z,1.77
2018-02-05T13:58:04.975Z,1.66
2018-02-05T14:00:32.901Z,1.62
2018-02-05T14:03:00.805Z,1.57
2018-02-05T14:05:28.610Z,1.50
2018-02-05T14:07:56.478Z,1.49
2018-02-05T14:10:24.292Z,1.51
2018-02-05T14:12:52.155Z,1.55
2018-02-05T14:15:19.999Z,1.58
2018-02-05T14:17:47.851Z,1.63
2018-02-05T14:20:15.717Z,1.63
2018-02-05T14:22:43.617Z,1.66
2018-02-05T14:25:11.419Z,1.62
2018-02-05T14:27:39.248Z,1.63
2018-02-05T14:30:07.105Z,1.62
2018-02-05T14:32:34.996Z,1.58
2018-02-05T14:35:02.816Z,1.50
2018-02-05T14:37:30.659Z,1.50
2018-02-05T14:39:58.501Z,1.55
2018-02-05T14:42:26.292Z,1.60
2018-02-05T14:44:54.134Z,1.59
2018-02-05T14:47:22.008Z,1.61
2018-02-05T14:49:49.815Z,1.61
2018-02-05T14:52:17.706Z,1.61
2018-02-05T14:54:45.518Z,1.59
2018-02-05T14:57:13.411Z,1.55
2018-02-05T14:59:41.165Z,1.51
2018-02-05T15:02:09.017Z,1.44
2018-02-05T15:04:36.813Z,1.40
2018-02-05T15:07:04.672Z,1.36
2018-02-05T15:09:32.530Z,1.33
2018-02-05T15:12:00.384Z,1.31
2018-02-05T15:14:28.759Z,1.30
2018-02-05T15:16:56.828Z,1.31
2018-02-05T15:19:24.960Z,1.30
2018-02-05T15:21:53.002Z,1.29
2018-02-05T15:24:20.922Z,1.26
2018-02-05T15:26:48.755Z,1.23
2018-02-05T15:29:16.660Z,1.22
2018-02-05T15:31:44.654Z,1.19
2018-02-05T15:34:12.502Z,1.16
2018-02-05T15:36:40.320Z,1.12
2018-02-05T15:39:08.208Z,1.09
2018-02-05T15:41:36.097Z,1.05
2018-02-05T15:44:03.918Z,1.00
2018-02-05T15:46:31.733Z,0.97
2018-02-05T15:48:59.575Z,0.95
2018-02-05T15:51:27.379Z,0.92
2018-02-05T15:53:55.212Z,0.88
2018-02-05T15:56:23.039Z,0.84
2018-02-05T15:58:50.890Z,0.80
2018-02-05T16:01:18.687Z,0.79
2018-02-05T16:03:46.521Z,0.76
2018-02-05T16:06:14.337Z,0.71
2018-02-05T16:08:42.187Z,0.72
2018-02-05T16:11:09.983Z,0.72
2018-02-05T16:13:37.842Z,0.78
2018-02-05T16:16:05.668Z,0.81
2018-02-05T16:18:33.548Z,0.84
2018-02-05T16:21:01.361Z,0.91
2018-02-05T16:23:29.220Z,0.93
2018-02-05T16:25:57.057Z,0.94
2018-02-05T16:28:24.927Z,0.89
2018-02-05T16:30:52.748Z,0.86
2018-02-05T16:33:20.909Z,0.84
2018-02-05T16:35:48.749Z,0.90
2018-02-05T16:38:16.598Z,0.88
2018-02-05T16:40:44.442Z,0.90
2018-02-05T16:43:12.280Z,0.92
2018-02-05T16:45:40.074Z,0.90
2018-02-05T16:48:07.959Z,0.84
2018-02-05T16:50:35.791Z,0.80
2018-02-05T16:53:03.607Z,0.78
2018-02-05T16:55:31.391Z,0.73
2018-02-05T16:57:59.243Z,0.73
2018-02-05T17:00:27.101Z,0.72
2018-02-05T17:02:54.935Z,0.68
2018-02-05T17:05:22.785Z,0.68
2018-02-05T17:07:50.601Z,0.66
2018-02-05T17:10:18.451Z,0.63
2018-02-05T17:12:46.269Z,0.62
2018-02-05T17:15:14.135Z,0.65
2018-02-05T17:17:41.969Z,0.59
2018-02-05T17:20:09.810Z,0.58
2018-02-05T17:22:37.636Z,0.53
2018-02-05T17:25:05.496Z,0.45
2018-02-05T17:27:33.330Z,0.39
2018-02-05T17:30:01.200Z,0.33
2018-02-05T17:32:29.030Z,0.29
2018-02-05T17:34:57.022Z,0.24
2018-02-05T17:37:24.840Z,0.18
2018-02-05T17:39:52.709Z,0.11
2018-02-05T17:42:20.528Z,0.04
2018-02-05T17:44:48.410Z,-0.05
2018-02-05T17:47:16.216Z,-0.10
2018-02-05T17:49:44.070Z,-0.16
2018-02-05T17:52:11.877Z,-0.21
2018-02-05T17:54:39.775Z,-0.15
2018-02-05T17:57:07.561Z,-0.06
2018-02-05T17:59:35.400Z,0.00
2018-02-05T18:02:03.335Z,-0.01
2018-02-05T18:04:31.152Z,-0.01
2018-02-05T18:06:59.008Z,-0.07
2018-02-05T18:09:26.944Z,-0.09
2018-02-05T18:11:54.923Z,-0.10
2018-02-05T18:14:22.799Z,-0.10
2018-02-05T18:16:50.622Z,-0.08
2018-02-05T18:19:18.465Z,-0.12
2018-02-05T18:21:46.305Z,-0.14
2018-02-05T18:24:14.170Z,-0.16
2018-02-05T18:26:41.996Z,-0.20
2018-02-05T18:29:09.854Z,-0.28
2018-02-05T18:31:37.683Z,-0.35
2018-02-05T18:34:05.553Z,-0.45
2018-02-05T18:36:33.389Z,-0.50
2018-02-05T18:39:01.247Z,-0.57
2018-02-05T18:41:29.075Z,-0.64
2018-02-05T18:43:56.914Z,-0.70
2018-02-05T18:46:24.790Z,-0.76
2018-02-05T18:48:52.713Z,-0.81
2018-02-05T18:51:20.534Z,-0.85
2018-02-05T18:53:48.335Z,-0.90
2018-02-05T18:56:16.297Z,-0.94
2018-02-05T18:58:44.131Z,-0.99
2018-02-05T19:01:12.051Z,-1.03
2018-02-05T19:03:39.867Z,-1.05
2018-02-05T19:06:07.750Z,-1.06
2018-02-05T19:08:35.610Z,-1.08
2018-02-05T19:11:03.474Z,-1.08
2018-02-05T19:13:31.280Z,-1.09
2018-02-05T19:15:59.141Z,-1.08
2018-02-05T19:18:26.985Z,-1.09
2018-02-05T19:20:54.850Z,-1.10
2018-02-05T19:23:22.704Z,-1.09
2018-02-05T19:25:50.539Z,-1.04
2018-02-05T19:28:18.399Z,-1.01
2018-02-05T19:30:46.268Z,-1.00
2018-02-05T19:33:14.062Z,-1.00
2018-02-05T19:35:41.948Z,-0.98
2018-02-05T19:38:09.748Z,-0.99
2018-02-05T19:40:37.629Z,-0.99
2018-02-05T19:43:05.474Z,-0.95
2018-02-05T19:45:33.360Z,-0.93
2018-02-05T19:48:01.192Z,-0.96
2018-02-05T19:50:29.072Z,-1.01
2018-02-05T19:52:56.886Z,-0.96
2018-02-05T19:55:24.707Z,-0.93
2018-02-05T19:57:52.555Z,-0.93
2018-02-05T20:00:20.467Z,-0.99
2018-02-05T20:02:48.299Z,-1.06
2018-02-05T20:05:16.165Z,-1.11
2018-02-05T20:07:44.016Z,-1.08
2018-02-05T20:10:11.875Z,-1.05
2018-02-05T20:12:39.675Z,-1.03
2018-02-05T20:15:07.519Z,-1.02
2018-02-05T20:17:35.351Z,-0.98
2018-02-05T20:20:03.222Z,-0.96
2018-02-05T20:22:31.047Z,-0.97
2018-02-05T20:24:58.906Z,-1.08
2018-02-05T20:27:26.769Z,-1.15
2018-02-05T20:29:54.585Z,-1.21
2018-02-05T20:32:22.420Z,-1.21
2018-02-05T20:34:50.227Z,-1.19
2018-02-05T20:37:18.068Z,-1.28
2018-02-05T20:39:45.975Z,-1.22
2018-02-05T20:42:13.856Z,-1.23
2018-02-05T20:44:41.715Z,-1.31
2018-02-05T20:47:09.607Z,-1.29
2018-02-05T20:49:37.375Z,-1.29
2018-02-05T20:52:05.227Z,-1.33
2018-02-05T20:54:33.026Z,-1.36
2018-02-05T20:57:00.859Z,-1.38
2018-02-05T20:59:28.664Z,-1.37
2018-02-05T21:01:56.576Z,-1.35
2018-02-05T21:04:24.380Z,-1.33
2018-02-05T21:06:52.264Z,-1.29
2018-02-05T21:09:20.034Z,-1.24
2018-02-05T21:11:47.867Z,-1.19
2018-02-05T21:14:15.661Z,-1.18
2018-02-05T21:16:43.482Z,-1.15
2018-02-05T21:19:11.282Z,-1.16
2018-02-05T21:21:39.101Z,-1.19
2018-02-05T21:24:06.912Z,-1.19
2018-02-05T21:26:34.733Z,-1.20
2018-02-05T21:29:02.490Z,-1.21
2018-02-05T21:31:30.316Z,-1.22
2018-02-05T21:33:58.120Z,-1.23
2018-02-05T21:36:25.943Z,-1.24
2018-02-05T21:38:53.849Z,-1.25
2018-02-05T21:41:21.858Z,-1.26
2018-02-05T21:43:49.664Z,-1.28
2018-02-05T21:46:17.500Z,-1.25
2018-02-05T21:48:45.283Z,-1.25
2018-02-05T21:51:13.121Z,-1.26
2018-02-05T21:53:40.999Z,-1.27
2018-02-05T21:56:08.884Z,-1.26
2018-02-05T21:58:36.720Z,-1.26
2018-02-05T22:01:04.518Z,-1.26
2018-02-05T22:03:32.331Z,-1.25
2018-02-05T22:06:00.179Z,-1.31
2018-02-05T22:08:27.952Z,-1.30
2018-02-05T22:10:55.765Z,-1.37
2018-02-05T22:13:23.587Z,-1.40
2018-02-05T22:15:51.328Z,-1.44
2018-02-05T22:18:19.148Z,-1.47
2018-02-05T22:20:46.978Z,-1.50
2018-02-05T22:23:14.769Z,-1.46
2018-02-05T22:25:42.527Z,-1.53
2018-02-05T22:28:10.303Z,-1.56
2018-02-05T22:30:38.054Z,-1.58
2018-02-05T22:33:05.924Z,-1.61
2018-02-05T22:35:33.696Z,-1.63
2018-02-05T22:38:01.523Z,-1.66
2018-02-05T22:40:29.316Z,-1.67
2018-02-05T22:42:57.191Z,-1.68
2018-02-05T22:45:25.027Z,-1.66
2018-02-05T22:47:52.875Z,-1.62
2018-02-05T22:50:20.629Z,-1.59
2018-02-05T22:52:48.454Z,-1.59
2018-02-05T22:55:16.193Z,-1.58
2018-02-05T22:57:44.075Z,-1.57
2018-02-05T23:00:18.694Z,-1.52
2018-02-05T23:02:46.535Z,-1.52
2018-02-05T23:05:14.311Z,-1.59
2018-02-05T23:07:42.086Z,-1.68
2018-02-05T23:10:09.824Z,-1.69
2018-02-05T23:12:37.640Z,-1.77
2018-02-05T23:15:05.431Z,-1.83
2018-02-05T23:17:33.293Z,-1.87
2018-02-05T23:20:01.061Z,-1.88
2018-02-05T23:22:28.884Z,-1.91
2018-02-05T23:24:56.612Z,-1.90
2018-02-05T23:27:24.431Z,-1.90
2018-02-05T23:29:52.203Z,-1.91
2018-02-05T23:32:20.012Z,-1.91
2018-02-05T23:34:47.763Z,-1.94
2018-02-05T23:37:15.564Z,-1.99
2018-02-05T23:39:43.317Z,-2.03
2018-02-05T23:42:11.148Z,-2.07
2018-02-05T23:44:38.905Z,-2.11
2018-02-05T23:47:06.724Z,-2.14
2018-02-05T23:49:34.498Z,-2.17
2018-02-05T23:52:02.328Z,-2.18
2018-02-05T23:54:30.100Z,-2.20
2018-02-05T23:56:57.932Z,-2.25
2018-02-05T23:59:25.715Z,-2.30
